Holly Ann — WDE9094 — position and weather

sailwx.info

Track history (hours):
 
Tides and Currents Weather Stations Pressure Air Temp Water Temp Dewpoint Dewpoint Depression Visibility Wind Speed Wind Dir Waves Ship Positions

Holly Ann

Owner: Manke Tug and Barge Co., Inc., Shelton, WA. More information available from US FCC via Universal Licensing System and Coast Guard Vessel Documentation Center.

Last reported at 2018-Feb-24 07:02 UTC. Time now 2018-Feb-25 22:13 UTC.
Position N 47°13' W 123°05'.

; draft 4.5 m.

Type: Towing. MMSI: 367413350.

Date/timePositionNaut miles runAvg speedWind from/ knotsBaromVisibWave heightAir tempDewpointWater temp
2018-Feb-24 07:02N 47°13' W 123°05'0 0.9
2018-Feb-24 07:00N 47°13' W 123°05'1 3.0
2018-Feb-24 06:30N 47°12' W 123°03'4 9.0
2018-Feb-24 06:00N 47°12' W 122°56'3 5.6
2018-Feb-24 05:24N 47°09' W 122°54'13 6.7
2018-Feb-24 03:29N 47°13' W 122°36'4 8.7
2018-Feb-24 02:59N 47°17' W 122°33'4 8.0
2018-Feb-24 02:30N 47°21' W 122°33'3 6.7
2018-Feb-24 02:00N 47°24' W 122°32'3 6.9
2018-Feb-24 01:30N 47°28' W 122°31'3 6.5
2018-Feb-24 01:00N 47°31' W 122°29'4 7.1
2018-Feb-24 00:30N 47°34' W 122°27'4 7.0
2018-Feb-24 00:00N 47°36' W 122°23'3 6.3
2018-Feb-23 23:30N 47°33' W 122°21'0 0.0
2018-Feb-23 23:00N 47°33' W 122°21'0 0.0
2018-Feb-23 22:30N 47°33' W 122°21'0 0.0
2018-Feb-23 22:00N 47°33' W 122°21'0 0.0
2018-Feb-23 21:30N 47°33' W 122°21'0 0.0
2018-Feb-23 21:00N 47°33' W 122°21'0 0.0
2018-Feb-23 20:30N 47°33' W 122°21'0 0.0
2018-Feb-23 20:00N 47°33' W 122°21'0 0.0
2018-Feb-23 19:30N 47°33' W 122°21'0 0.0
2018-Feb-23 19:00N 47°33' W 122°21'0 0.0
2018-Feb-23 18:30N 47°33' W 122°21'0 0.0
2018-Feb-23 18:00N 47°33' W 122°21'0 0.0
2018-Feb-23 17:30N 47°33' W 122°21'0 0.0
2018-Feb-23 17:00N 47°33' W 122°21'0 0.0
2018-Feb-23 16:30N 47°33' W 122°21'0 0.0
2018-Feb-23 16:00N 47°33' W 122°21'0 0.0
2018-Feb-23 15:30N 47°33' W 122°21'0 0.0
2018-Feb-23 15:00N 47°33' W 122°21'0 0.0
2018-Feb-23 14:29N 47°33' W 122°21'0 0.1
2018-Feb-23 14:00N 47°33' W 122°21'1 1.9
2018-Feb-23 13:30N 47°34' W 122°21'2 3.8
2018-Feb-23 13:00N 47°36' W 122°23'3 5.0
2018-Feb-23 12:30N 47°34' W 122°26'4 7.2
2018-Feb-23 12:00N 47°31' W 122°29'4 7.3
2018-Feb-23 11:30N 47°28' W 122°31'4 7.8
2018-Feb-23 11:00N 47°24' W 122°32'4 7.4
2018-Feb-23 10:30N 47°21' W 122°33'4 7.7
2018-Feb-23 10:00N 47°17' W 122°33'4 8.1
2018-Feb-23 09:30N 47°13' W 122°36'12 6.5
2018-Feb-23 07:39N 47°10' W 122°53'2 6.2
2018-Feb-23 07:22N 47°10' W 122°55'2 5.6
2018-Feb-23 07:00N 47°12' W 122°56'2 4.3
2018-Feb-23 06:30N 47°12' W 122°59'2 4.5
2018-Feb-23 06:00N 47°12' W 123°03'2 3.2
2018-Feb-23 05:30N 47°13' W 123°05'0 0.0
2018-Feb-22 04:29N 47°13' W 123°05'2 3.4
2018-Feb-22 04:00N 47°12' W 123°03'4 8.8
2018-Feb-22 03:30N 47°12' W 122°56'12 6.6
2018-Feb-22 01:43N 47°12' W 122°39'2 8.5
2018-Feb-22 01:26N 47°13' W 122°36'410.4
2018-Feb-22 01:00N 47°17' W 122°33'5 9.1
2018-Feb-22 00:30N 47°21' W 122°32'4 8.0
2018-Feb-22 00:00N 47°25' W 122°32'4 7.8
2018-Feb-21 23:30N 47°29' W 122°30'4 8.2
2018-Feb-21 23:00N 47°33' W 122°27'4 8.6
2018-Feb-21 22:30N 47°36' W 122°23'3 4.9
2018-Feb-21 21:59N 47°34' W 122°21'0 0.0
2018-Feb-21 21:30N 47°34' W 122°21'0 0.0
2018-Feb-21 20:59N 47°34' W 122°21'0 0.0
2018-Feb-21 20:30N 47°34' W 122°21'0 0.0
2018-Feb-21 20:00N 47°34' W 122°21'0 0.0
2018-Feb-21 19:30N 47°34' W 122°21'0 0.0
2018-Feb-21 19:00N 47°34' W 122°21'0 0.0
2018-Feb-21 18:30N 47°34' W 122°21'0 0.0
2018-Feb-21 18:00N 47°34' W 122°21'0 0.0
2018-Feb-21 17:30N 47°34' W 122°21'0 0.0
2018-Feb-21 17:00N 47°34' W 122°21'0 0.0
2018-Feb-21 16:30N 47°34' W 122°21'0 0.0
2018-Feb-21 16:00N 47°34' W 122°21'0 0.0
2018-Feb-21 15:30N 47°34' W 122°21'0 0.0
2018-Feb-21 14:59N 47°34' W 122°21'0 0.0
2018-Feb-21 14:30N 47°34' W 122°21'0 0.0
2018-Feb-21 14:00N 47°34' W 122°21'0 0.0
2018-Feb-21 13:30N 47°34' W 122°21'0 0.0
2018-Feb-21 13:00N 47°34' W 122°21'0 0.4
2018-Feb-21 12:30N 47°34' W 122°21'2 3.5
2018-Feb-21 12:00N 47°36' W 122°22'2 4.9
2018-Feb-21 11:31N 47°35' W 122°26'3 6.7
2018-Feb-21 11:00N 47°32' W 122°28'4 7.5
2018-Feb-21 10:30N 47°28' W 122°31'4 7.8
2018-Feb-21 10:00N 47°25' W 122°32'4 7.6
2018-Feb-21 09:30N 47°21' W 122°33'4 7.3
2018-Feb-21 09:00N 47°17' W 122°32'4 7.7
2018-Feb-21 08:30N 47°14' W 122°35'3 6.1
2018-Feb-21 08:00N 47°11' W 122°37'3 5.4
2018-Feb-21 07:30N 47°09' W 122°40'9 4.9
2018-Feb-21 05:41N 47°10' W 122°53'2 6.1
2018-Feb-21 05:24N 47°10' W 122°55'2 5.4
2018-Feb-21 05:00N 47°12' W 122°56'2 4.1
2018-Feb-21 04:30N 47°12' W 122°59'2 4.3
2018-Feb-21 04:00N 47°12' W 123°02'2 3.3
2018-Feb-21 03:29N 47°13' W 123°05'0 0.0
2018-Feb-20 03:44N 47°13' W 123°05'0 0.5
2018-Feb-20 03:29N 47°13' W 123°05'4 8.4
2018-Feb-20 03:00N 47°12' W 122°59'3 5.7
2018-Feb-20 02:30N 47°11' W 122°55'14 8.0
2018-Feb-20 00:49N 47°13' W 122°36'411.8
2018-Feb-20 00:30N 47°16' W 122°33'510.4
2018-Feb-20 00:00N 47°21' W 122°32'4 8.4
2018-Feb-19 23:30N 47°25' W 122°32'4 8.3
2018-Feb-19 23:00N 47°29' W 122°30'5 9.3
2018-Feb-19 22:30N 47°34' W 122°27'4 7.8
2018-Feb-19 22:00N 47°36' W 122°22'2 5.0
2018-Feb-19 21:30N 47°33' W 122°21'0 0.0
2018-Feb-19 21:00N 47°33' W 122°21'0 0.0
2018-Feb-19 20:30N 47°33' W 122°21'0 0.0
2018-Feb-19 20:00N 47°33' W 122°21'0 0.0
2018-Feb-19 19:30N 47°33' W 122°21'0 0.0
2018-Feb-19 19:00N 47°33' W 122°21'0 0.0
2018-Feb-19 18:30N 47°33' W 122°21'0 0.0
2018-Feb-19 18:00N 47°33' W 122°21'0 0.0
2018-Feb-19 17:30N 47°33' W 122°21'0 0.0
2018-Feb-19 17:00N 47°33' W 122°21'0 0.0
2018-Feb-19 16:30N 47°33' W 122°21'0 0.0
2018-Feb-19 16:00N 47°33' W 122°21'0 0.0
2018-Feb-19 15:30N 47°33' W 122°21'0 0.0
2018-Feb-19 15:00N 47°33' W 122°21'0 0.0
2018-Feb-19 14:30N 47°33' W 122°21'0 0.0
2018-Feb-19 14:00N 47°33' W 122°21'0 0.0
2018-Feb-19 13:30N 47°33' W 122°21'0 0.0
2018-Feb-19 13:00N 47°33' W 122°21'0 0.0
2018-Feb-19 12:30N 47°33' W 122°21'0 0.1
2018-Feb-19 12:00N 47°33' W 122°21'1 2.3
2018-Feb-19 11:30N 47°34' W 122°21'2 4.7
2018-Feb-19 11:00N 47°36' W 122°24'3 5.5
2018-Feb-19 10:30N 47°34' W 122°26'3 6.0
2018-Feb-19 10:00N 47°31' W 122°28'3 5.9
2018-Feb-19 09:30N 47°29' W 122°30'2 4.4
2018-Feb-19 09:00N 47°27' W 122°31'2 3.6
2018-Feb-19 08:30N 47°25' W 122°32'2 3.5
2018-Feb-19 08:00N 47°23' W 122°32'2 3.9
2018-Feb-19 07:30N 47°21' W 122°32'4 6.9
2018-Feb-19 06:54N 47°17' W 122°32'3 7.9
2018-Feb-19 06:27N 47°14' W 122°35'4 5.9
2018-Feb-19 05:49N 47°11' W 122°39'9 5.0
2018-Feb-19 04:00N 47°10' W 122°52'3 5.3
2018-Feb-19 03:29N 47°11' W 122°56'2 3.4
2018-Feb-19 03:00N 47°12' W 122°57'2 3.6
2018-Feb-19 02:30N 47°12' W 122°60'2 4.1
2018-Feb-19 01:55N 47°12' W 123°03'1 3.0
2018-Feb-19 01:30N 47°13' W 123°04'0 0.6
2018-Feb-19 01:00N 47°13' W 123°05'0 0.0
2018-Feb-16 22:08N 47°13' W 123°05'0 1.6
2018-Feb-16 21:59N 47°13' W 123°04'0 0.0
2018-Feb-15 18:19N 47°13' W 123°05'0 0.6
2018-Feb-15 18:00N 47°13' W 123°05'3 6.2
2018-Feb-15 17:30N 47°12' W 123°00'3 5.6
2018-Feb-15 17:00N 47°12' W 122°56'2 2.7
2018-Feb-15 16:12N 47°11' W 122°53'1 0.4
2018-Feb-15 13:41N 47°10' W 122°53'1 7.2
2018-Feb-15 13:30N 47°10' W 122°55'2 3.8
2018-Feb-15 13:00N 47°12' W 122°56'0 0.8
2018-Feb-15 12:30N 47°12' W 122°56'0 0.3
2018-Feb-15 12:00N 47°12' W 122°56'2 3.7
2018-Feb-15 11:30N 47°10' W 122°55'13 6.6
2018-Feb-15 09:32N 47°13' W 122°36'0 9.8
2018-Feb-15 09:30N 47°13' W 122°36'611.1
2018-Feb-15 08:58N 47°19' W 122°33'4 8.4
2018-Feb-15 08:30N 47°23' W 122°32'4 7.8
2018-Feb-15 08:00N 47°27' W 122°31'4 7.4
2018-Feb-15 07:30N 47°30' W 122°30'4 7.8
2018-Feb-15 07:00N 47°34' W 122°27'4 7.9
2018-Feb-15 06:30N 47°36' W 122°23'2 5.0
2018-Feb-15 06:00N 47°34' W 122°21'0 0.0
2018-Feb-15 05:31N 47°34' W 122°21'0 0.0
2018-Feb-15 05:00N 47°34' W 122°21'0 0.0
2018-Feb-15 04:30N 47°34' W 122°21'0 0.0
2018-Feb-15 04:00N 47°34' W 122°21'0 0.0
2018-Feb-15 03:31N 47°34' W 122°21'0 0.0
2018-Feb-15 03:00N 47°34' W 122°21'0 0.0
2018-Feb-15 02:31N 47°34' W 122°21'0 0.0
2018-Feb-15 02:00N 47°34' W 122°21'0 0.0
2018-Feb-15 01:30N 47°34' W 122°21'0 0.0
2018-Feb-15 01:00N 47°34' W 122°21'0 0.0
2018-Feb-15 00:30N 47°34' W 122°21'0 0.0
2018-Feb-14 23:59N 47°34' W 122°21'0 0.0
2018-Feb-14 23:30N 47°34' W 122°21'0 0.0
2018-Feb-14 23:01N 47°34' W 122°21'0 0.0
2018-Feb-14 22:31N 47°34' W 122°21'0 0.0
2018-Feb-14 21:59N 47°34' W 122°21'0 0.0
2018-Feb-14 21:30N 47°34' W 122°21'0 0.0
2018-Feb-14 21:00N 47°34' W 122°21'0 0.0
2018-Feb-14 20:30N 47°34' W 122°21'0 0.0
2018-Feb-14 20:00N 47°34' W 122°21'0 0.0
2018-Feb-14 19:28N 47°34' W 122°21'0 0.0
2018-Feb-14 18:49N 47°34' W 122°21'0 0.0
2018-Feb-14 18:22N 47°34' W 122°21'0 0.0
2018-Feb-14 17:50N 47°34' W 122°21'0 0.0
2018-Feb-14 17:31N 47°34' W 122°21'0 0.0
2018-Feb-14 17:00N 47°34' W 122°21'0 0.0
2018-Feb-14 16:27N 47°34' W 122°21'0 0.0
2018-Feb-14 16:00N 47°34' W 122°21'0 0.0
2018-Feb-14 15:29N 47°34' W 122°21'0 0.0
2018-Feb-14 14:54N 47°34' W 122°21'0 0.0
2018-Feb-14 14:13N 47°34' W 122°21'0 0.0
2018-Feb-14 14:00N 47°34' W 122°21'0 0.0
2018-Feb-14 13:30N 47°34' W 122°21'0 0.0
2018-Feb-14 13:00N 47°34' W 122°21'0 0.0
2018-Feb-14 12:29N 47°34' W 122°21'0 0.0
2018-Feb-14 12:00N 47°34' W 122°21'0 0.0
2018-Feb-14 11:30N 47°34' W 122°21'0 0.0
2018-Feb-14 10:58N 47°34' W 122°21'0 0.0
2018-Feb-14 10:29N 47°34' W 122°21'0 0.0
2018-Feb-14 10:00N 47°34' W 122°21'0 0.1
2018-Feb-14 09:24N 47°34' W 122°21'1 3.1
2018-Feb-14 09:01N 47°35' W 122°22'2 3.9
2018-Feb-14 08:30N 47°35' W 122°25'3 5.9
2018-Feb-14 08:01N 47°33' W 122°27'3 5.9
2018-Feb-14 07:30N 47°30' W 122°29'  
Track history (hours):
 
Tides and Currents Weather Stations Pressure Air Temp Water Temp Dewpoint Dewpoint Depression Visibility Wind Speed Wind Dir Waves Ship Positions

Holly Ann

Owner: Manke Tug and Barge Co., Inc., Shelton, WA. More information available from US FCC via Universal Licensing System and Coast Guard Vessel Documentation Center.

Last reported at 2018-Feb-24 07:02 UTC. Time now 2018-Feb-25 22:13 UTC.
Position N 47°13' W 123°05'.

; draft 4.5 m.

Type: Towing. MMSI: 367413350.

Date/timePositionNaut miles runAvg speedWind from/ knotsBaromVisibWave heightAir tempDewpointWater temp
2018-Feb-24 07:02N 47°13' W 123°05'0 0.9
2018-Feb-24 07:00N 47°13' W 123°05'1 3.0
2018-Feb-24 06:30N 47°12' W 123°03'4 9.0
2018-Feb-24 06:00N 47°12' W 122°56'3 5.6
2018-Feb-24 05:24N 47°09' W 122°54'13 6.7
2018-Feb-24 03:29N 47°13' W 122°36'4 8.7
2018-Feb-24 02:59N 47°17' W 122°33'4 8.0
2018-Feb-24 02:30N 47°21' W 122°33'3 6.7
2018-Feb-24 02:00N 47°24' W 122°32'3 6.9
2018-Feb-24 01:30N 47°28' W 122°31'3 6.5
2018-Feb-24 01:00N 47°31' W 122°29'4 7.1
2018-Feb-24 00:30N 47°34' W 122°27'4 7.0
2018-Feb-24 00:00N 47°36' W 122°23'3 6.3
2018-Feb-23 23:30N 47°33' W 122°21'0 0.0
2018-Feb-23 23:00N 47°33' W 122°21'0 0.0
2018-Feb-23 22:30N 47°33' W 122°21'0 0.0
2018-Feb-23 22:00N 47°33' W 122°21'0 0.0
2018-Feb-23 21:30N 47°33' W 122°21'0 0.0
2018-Feb-23 21:00N 47°33' W 122°21'0 0.0
2018-Feb-23 20:30N 47°33' W 122°21'0 0.0
2018-Feb-23 20:00N 47°33' W 122°21'0 0.0
2018-Feb-23 19:30N 47°33' W 122°21'0 0.0
2018-Feb-23 19:00N 47°33' W 122°21'0 0.0
2018-Feb-23 18:30N 47°33' W 122°21'0 0.0
2018-Feb-23 18:00N 47°33' W 122°21'0 0.0
2018-Feb-23 17:30N 47°33' W 122°21'0 0.0
2018-Feb-23 17:00N 47°33' W 122°21'0 0.0
2018-Feb-23 16:30N 47°33' W 122°21'0 0.0
2018-Feb-23 16:00N 47°33' W 122°21'0 0.0
2018-Feb-23 15:30N 47°33' W 122°21'0 0.0
2018-Feb-23 15:00N 47°33' W 122°21'0 0.0
2018-Feb-23 14:29N 47°33' W 122°21'0 0.1
2018-Feb-23 14:00N 47°33' W 122°21'1 1.9
2018-Feb-23 13:30N 47°34' W 122°21'2 3.8
2018-Feb-23 13:00N 47°36' W 122°23'3 5.0
2018-Feb-23 12:30N 47°34' W 122°26'4 7.2
2018-Feb-23 12:00N 47°31' W 122°29'4 7.3
2018-Feb-23 11:30N 47°28' W 122°31'4 7.8
2018-Feb-23 11:00N 47°24' W 122°32'4 7.4
2018-Feb-23 10:30N 47°21' W 122°33'4 7.7
2018-Feb-23 10:00N 47°17' W 122°33'4 8.1
2018-Feb-23 09:30N 47°13' W 122°36'12 6.5
2018-Feb-23 07:39N 47°10' W 122°53'2 6.2
2018-Feb-23 07:22N 47°10' W 122°55'2 5.6
2018-Feb-23 07:00N 47°12' W 122°56'2 4.3
2018-Feb-23 06:30N 47°12' W 122°59'2 4.5
2018-Feb-23 06:00N 47°12' W 123°03'2 3.2
2018-Feb-23 05:30N 47°13' W 123°05'0 0.0
2018-Feb-22 04:29N 47°13' W 123°05'2 3.4
2018-Feb-22 04:00N 47°12' W 123°03'4 8.8
2018-Feb-22 03:30N 47°12' W 122°56'12 6.6
2018-Feb-22 01:43N 47°12' W 122°39'2 8.5
2018-Feb-22 01:26N 47°13' W 122°36'410.4
2018-Feb-22 01:00N 47°17' W 122°33'5 9.1
2018-Feb-22 00:30N 47°21' W 122°32'4 8.0
2018-Feb-22 00:00N 47°25' W 122°32'4 7.8
2018-Feb-21 23:30N 47°29' W 122°30'4 8.2
2018-Feb-21 23:00N 47°33' W 122°27'4 8.6
2018-Feb-21 22:30N 47°36' W 122°23'3 4.9
2018-Feb-21 21:59N 47°34' W 122°21'0 0.0
2018-Feb-21 21:30N 47°34' W 122°21'0 0.0
2018-Feb-21 20:59N 47°34' W 122°21'0 0.0
2018-Feb-21 20:30N 47°34' W 122°21'0 0.0
2018-Feb-21 20:00N 47°34' W 122°21'0 0.0
2018-Feb-21 19:30N 47°34' W 122°21'0 0.0
2018-Feb-21 19:00N 47°34' W 122°21'0 0.0
2018-Feb-21 18:30N 47°34' W 122°21'0 0.0
2018-Feb-21 18:00N 47°34' W 122°21'0 0.0
2018-Feb-21 17:30N 47°34' W 122°21'0 0.0
2018-Feb-21 17:00N 47°34' W 122°21'0 0.0
2018-Feb-21 16:30N 47°34' W 122°21'0 0.0
2018-Feb-21 16:00N 47°34' W 122°21'0 0.0
2018-Feb-21 15:30N 47°34' W 122°21'0 0.0
2018-Feb-21 14:59N 47°34' W 122°21'0 0.0
2018-Feb-21 14:30N 47°34' W 122°21'0 0.0
2018-Feb-21 14:00N 47°34' W 122°21'0 0.0
2018-Feb-21 13:30N 47°34' W 122°21'0 0.0
2018-Feb-21 13:00N 47°34' W 122°21'0 0.4
2018-Feb-21 12:30N 47°34' W 122°21'2 3.5
2018-Feb-21 12:00N 47°36' W 122°22'2 4.9
2018-Feb-21 11:31N 47°35' W 122°26'3 6.7
2018-Feb-21 11:00N 47°32' W 122°28'4 7.5
2018-Feb-21 10:30N 47°28' W 122°31'4 7.8
2018-Feb-21 10:00N 47°25' W 122°32'4 7.6
2018-Feb-21 09:30N 47°21' W 122°33'4 7.3
2018-Feb-21 09:00N 47°17' W 122°32'4 7.7
2018-Feb-21 08:30N 47°14' W 122°35'3 6.1
2018-Feb-21 08:00N 47°11' W 122°37'3 5.4
2018-Feb-21 07:30N 47°09' W 122°40'9 4.9
2018-Feb-21 05:41N 47°10' W 122°53'2 6.1
2018-Feb-21 05:24N 47°10' W 122°55'2 5.4
2018-Feb-21 05:00N 47°12' W 122°56'2 4.1
2018-Feb-21 04:30N 47°12' W 122°59'2 4.3
2018-Feb-21 04:00N 47°12' W 123°02'2 3.3
2018-Feb-21 03:29N 47°13' W 123°05'0 0.0
2018-Feb-20 03:44N 47°13' W 123°05'0 0.5
2018-Feb-20 03:29N 47°13' W 123°05'4 8.4
2018-Feb-20 03:00N 47°12' W 122°59'3 5.7
2018-Feb-20 02:30N 47°11' W 122°55'14 8.0
2018-Feb-20 00:49N 47°13' W 122°36'411.8
2018-Feb-20 00:30N 47°16' W 122°33'510.4
2018-Feb-20 00:00N 47°21' W 122°32'4 8.4
2018-Feb-19 23:30N 47°25' W 122°32'4 8.3
2018-Feb-19 23:00N 47°29' W 122°30'5 9.3
2018-Feb-19 22:30N 47°34' W 122°27'4 7.8
2018-Feb-19 22:00N 47°36' W 122°22'2 5.0
2018-Feb-19 21:30N 47°33' W 122°21'0 0.0
2018-Feb-19 21:00N 47°33' W 122°21'0 0.0
2018-Feb-19 20:30N 47°33' W 122°21'0 0.0
2018-Feb-19 20:00N 47°33' W 122°21'0 0.0
2018-Feb-19 19:30N 47°33' W 122°21'0 0.0
2018-Feb-19 19:00N 47°33' W 122°21'0 0.0
2018-Feb-19 18:30N 47°33' W 122°21'0 0.0
2018-Feb-19 18:00N 47°33' W 122°21'0 0.0
2018-Feb-19 17:30N 47°33' W 122°21'0 0.0
2018-Feb-19 17:00N 47°33' W 122°21'0 0.0
2018-Feb-19 16:30N 47°33' W 122°21'0 0.0
2018-Feb-19 16:00N 47°33' W 122°21'0 0.0
2018-Feb-19 15:30N 47°33' W 122°21'0 0.0
2018-Feb-19 15:00N 47°33' W 122°21'0 0.0
2018-Feb-19 14:30N 47°33' W 122°21'0 0.0
2018-Feb-19 14:00N 47°33' W 122°21'0 0.0
2018-Feb-19 13:30N 47°33' W 122°21'0 0.0
2018-Feb-19 13:00N 47°33' W 122°21'0 0.0
2018-Feb-19 12:30N 47°33' W 122°21'0 0.1
2018-Feb-19 12:00N 47°33' W 122°21'1 2.3
2018-Feb-19 11:30N 47°34' W 122°21'2 4.7
2018-Feb-19 11:00N 47°36' W 122°24'3 5.5
2018-Feb-19 10:30N 47°34' W 122°26'3 6.0
2018-Feb-19 10:00N 47°31' W 122°28'3 5.9
2018-Feb-19 09:30N 47°29' W 122°30'2 4.4
2018-Feb-19 09:00N 47°27' W 122°31'2 3.6
2018-Feb-19 08:30N 47°25' W 122°32'2 3.5
2018-Feb-19 08:00N 47°23' W 122°32'2 3.9
2018-Feb-19 07:30N 47°21' W 122°32'4 6.9
2018-Feb-19 06:54N 47°17' W 122°32'3 7.9
2018-Feb-19 06:27N 47°14' W 122°35'4 5.9
2018-Feb-19 05:49N 47°11' W 122°39'9 5.0
2018-Feb-19 04:00N 47°10' W 122°52'3 5.3
2018-Feb-19 03:29N 47°11' W 122°56'2 3.4
2018-Feb-19 03:00N 47°12' W 122°57'2 3.6
2018-Feb-19 02:30N 47°12' W 122°60'2 4.1
2018-Feb-19 01:55N 47°12' W 123°03'1 3.0
2018-Feb-19 01:30N 47°13' W 123°04'0 0.6
2018-Feb-19 01:00N 47°13' W 123°05'0 0.0
2018-Feb-16 22:08N 47°13' W 123°05'0 1.6
2018-Feb-16 21:59N 47°13' W 123°04'0 0.0
2018-Feb-15 18:19N 47°13' W 123°05'0 0.6
2018-Feb-15 18:00N 47°13' W 123°05'3 6.2
2018-Feb-15 17:30N 47°12' W 123°00'3 5.6
2018-Feb-15 17:00N 47°12' W 122°56'2 2.7
2018-Feb-15 16:12N 47°11' W 122°53'1 0.4
2018-Feb-15 13:41N 47°10' W 122°53'1 7.2
2018-Feb-15 13:30N 47°10' W 122°55'2 3.8
2018-Feb-15 13:00N 47°12' W 122°56'0 0.8
2018-Feb-15 12:30N 47°12' W 122°56'0 0.3
2018-Feb-15 12:00N 47°12' W 122°56'2 3.7
2018-Feb-15 11:30N 47°10' W 122°55'13 6.6
2018-Feb-15 09:32N 47°13' W 122°36'0 9.8
2018-Feb-15 09:30N 47°13' W 122°36'611.1
2018-Feb-15 08:58N 47°19' W 122°33'4 8.4
2018-Feb-15 08:30N 47°23' W 122°32'4 7.8
2018-Feb-15 08:00N 47°27' W 122°31'4 7.4
2018-Feb-15 07:30N 47°30' W 122°30'4 7.8
2018-Feb-15 07:00N 47°34' W 122°27'4 7.9
2018-Feb-15 06:30N 47°36' W 122°23'2 5.0
2018-Feb-15 06:00N 47°34' W 122°21'0 0.0
2018-Feb-15 05:31N 47°34' W 122°21'0 0.0
2018-Feb-15 05:00N 47°34' W 122°21'0 0.0
2018-Feb-15 04:30N 47°34' W 122°21'0 0.0
2018-Feb-15 04:00N 47°34' W 122°21'0 0.0
2018-Feb-15 03:31N 47°34' W 122°21'0 0.0
2018-Feb-15 03:00N 47°34' W 122°21'0 0.0
2018-Feb-15 02:31N 47°34' W 122°21'0 0.0
2018-Feb-15 02:00N 47°34' W 122°21'0 0.0
2018-Feb-15 01:30N 47°34' W 122°21'0 0.0
2018-Feb-15 01:00N 47°34' W 122°21'0 0.0
2018-Feb-15 00:30N 47°34' W 122°21'0 0.0
2018-Feb-14 23:59N 47°34' W 122°21'0 0.0
2018-Feb-14 23:30N 47°34' W 122°21'0 0.0
2018-Feb-14 23:01N 47°34' W 122°21'0 0.0
2018-Feb-14 22:31N 47°34' W 122°21'0 0.0
2018-Feb-14 21:59N 47°34' W 122°21'0 0.0
2018-Feb-14 21:30N 47°34' W 122°21'0 0.0
2018-Feb-14 21:00N 47°34' W 122°21'0 0.0
2018-Feb-14 20:30N 47°34' W 122°21'0 0.0
2018-Feb-14 20:00N 47°34' W 122°21'0 0.0
2018-Feb-14 19:28N 47°34' W 122°21'0 0.0
2018-Feb-14 18:49N 47°34' W 122°21'0 0.0
2018-Feb-14 18:22N 47°34' W 122°21'0 0.0
2018-Feb-14 17:50N 47°34' W 122°21'0 0.0
2018-Feb-14 17:31N 47°34' W 122°21'0 0.0
2018-Feb-14 17:00N 47°34' W 122°21'0 0.0
2018-Feb-14 16:27N 47°34' W 122°21'0 0.0
2018-Feb-14 16:00N 47°34' W 122°21'0 0.0
2018-Feb-14 15:29N 47°34' W 122°21'0 0.0
2018-Feb-14 14:54N 47°34' W 122°21'0 0.0
2018-Feb-14 14:13N 47°34' W 122°21'0 0.0
2018-Feb-14 14:00N 47°34' W 122°21'0 0.0
2018-Feb-14 13:30N 47°34' W 122°21'0 0.0
2018-Feb-14 13:00N 47°34' W 122°21'0 0.0
2018-Feb-14 12:29N 47°34' W 122°21'0 0.0
2018-Feb-14 12:00N 47°34' W 122°21'0 0.0
2018-Feb-14 11:30N 47°34' W 122°21'0 0.0
2018-Feb-14 10:58N 47°34' W 122°21'0 0.0
2018-Feb-14 10:29N 47°34' W 122°21'0 0.0
2018-Feb-14 10:00N 47°34' W 122°21'0 0.1
2018-Feb-14 09:24N 47°34' W 122°21'1 3.1
2018-Feb-14 09:01N 47°35' W 122°22'2 3.9
2018-Feb-14 08:30N 47°35' W 122°25'3 5.9
2018-Feb-14 08:01N 47°33' W 122°27'3 5.9
2018-Feb-14 07:30N 47°30' W 122°29'  

Dump ship's entire track history